Portada
METAR-TAF:

METAR-TAF

Aeroports :

Tabas, Iran

latitud: 33-36N, longitud: 056-55E, altitud: 710 m

Observació

L'informe es va fer fa 9 hores i 37 minuts, a les 12:00 UTC
Vent 10 kt del Nord
Temperatura 41°C
Humitat 10%
Pressió 1010 hPa

METAR: OIMT 261200Z AUTO 35010KT //// // ////// 41/03 Q1010

Hora: 02:07 (21:37 UTC)


TAF: manca

Observacions i pronòstics meteorològics de més de 4000 aeroports (METAR i TAF).

Les estacions disponibles són els punts grocs i vermells al mapa.

Posi el ratolí al punt desitjat per veure el nom de l'estació.

Feu clic per veure les observacions i els pronòstics meteorològics.

Per canviar el mapa: feu clic els botons verds amb una creu de color negre per apropar; al botó verd amb un guió per allunyar la imatge; o en les fletxes verdes per a mapes adjacents.


METAR-TAF: